Metar Cercanos

 

LEPA - Palma De Mallorc, Spain
Distance from station: ONO 38km
Actualización: 15/12/2017 09:00
Parcialmente nuboso
Parcialmente nuboso
 Viento del O
Viento: O 17 km/h
Temperatura: 16°C
Rocío: 12°C
Humedad: 77%
Barómetro: 1007 hPa
Clouds: Parcialmente nuboso
Visibility: 10 km
Cloud details: Few Clouds 762 m
Parcialmente nuboso 1676 m
2017/12/15 08:00 LEPA 150800Z 27009KT 240V320 9999 FEW025 SCT055 16/12 Q1007 NOSIG
LEMH - Mahon/Menorca Is, Spain
Distance from station: ENE 105km
Actualización: 15/12/2017 09:00
Muy nuboso
Muy nuboso
 Viento del O
Viento: O 17 km/h
Temperatura: 15°C
Rocío: 12°C
Humedad: 82%
Barómetro: 1006 hPa
Clouds: Muy nuboso
Visibility: 10 km
Cloud details: Few Clouds 488 m
Few Clouds 610 m
Muy nuboso 1372 m
2017/12/15 08:00 LEMH 150800Z 26009KT 210V290 9999 FEW016 FEW020TCU BKN045 15/12 Q1006
 
LEIB - Ibiza/Es Codola, Spain
Distance from station: OSO 165km
Actualización: 15/12/2017 09:00
Few Clouds
Few Clouds
 Viento del OSO
Viento: OSO 37 km/h
Temperatura: 17°C
Rocío: 11°C
Humedad: 68%
Barómetro: 1008 hPa
Clouds: Few Clouds
Visibility: 10 km
Cloud details: Few Clouds 1372 m
2017/12/15 08:00 LEIB 150800Z 24020KT 9999 FEW045 17/11 Q1008 NOSIG
LEBL - Barcelona Airpor, Spain
Distance from station: NNO 225km
Actualización: 15/12/2017 09:00
Few Clouds
Few Clouds
 Viento del NO
Viento: NO 7 km/h
Temperatura: 10°C
Sensación frio: 9°C
Rocío: 8°C
Humedad: 88%
Barómetro: 1005 hPa
Clouds: Few Clouds
Visibility: 10 km
Cloud details: Few Clouds 762 m
2017/12/15 08:00 LEBL 150800Z 31004KT 270V010 9999 FEW025 10/08 Q1005 NOSIG
 
LEVC - Valencia (civ/Mi, Spain
Distance from station: NO 188km
Actualización: 15/12/2017 09:00
Few Clouds
Few Clouds
 Viento del SO
Viento: SO 11 km/h
Temperatura: 15°C
Rocío: 7°C
Humedad: 59%
Barómetro: 1008 hPa
Clouds: Few Clouds
Visibility: 10 km
Cloud details: Few Clouds 457 m
2017/12/15 08:00 LEVC 150800Z 22006KT 180V290 9999 FEW015 15/07 Q1008 NOSIG
LEGE - Gerona/Costa Bra, Spain
Distance from station: N 276km
Actualización: 15/12/2017 09:00
Parcialmente nuboso
Parcialmente nuboso
 Viento del calm
Viento: Calma
Temperatura: 6°C
Rocío: 6°C
Humedad: 100%
Barómetro: 1005 hPa
Clouds: Parcialmente nuboso
Visibility: 10 km
Cloud details: Parcialmente nuboso 853 m
2017/12/15 08:00 LEGE 150800Z 00000KT 9999 SCT028 06/06 Q1005
 
LEAL - Alicante/El Alte, Spain
Distance from station: OSO 344km
Actualización: 15/12/2017 09:00
Few Clouds
Few Clouds
 Viento del S
Viento: S 7 km/h
Temperatura: 15°C
Rocío: 8°C
Humedad: 63%
Barómetro: 1011 hPa
Clouds: Few Clouds
Visibility: 10 km
Cloud details: Few Clouds 610 m
2017/12/15 08:00 LEAL 150800Z 18004KT 120V250 9999 FEW020 15/08 Q1011 NOSIG
LEAM - Almeria Airport, Spain
Distance from station: SSO 56km
Actualización: 15/12/2017 09:00
Few Clouds
Few Clouds
 Viento del N
Viento: N 7 km/h
Temperatura: 12°C
Rocío: 11°C
Humedad: 94%
Barómetro: 1013 hPa
Clouds: Few Clouds
Visibility: 10 km
Cloud details: Few Clouds 305 m
2017/12/15 08:00 LEAM 150800Z 01004KT 9999 FEW010 12/11 Q1013
 
LEZG - Zaragoza (mil/Ci, Spain
Distance from station: NO 431km
Actualización: 15/12/2017 09:00
Parcialmente nuboso
Parcialmente nuboso
 Viento del ONO
Viento: ONO 22 km/h
Temperatura: 7°C
Sensación frio: 4°C
Rocío: 5°C
Humedad: 87%
Barómetro: 1010 hPa
Clouds: Parcialmente nuboso
Visibility: 10 km
Cloud details: Few Clouds 1219 m
Parcialmente nuboso 1981 m
2017/12/15 08:00 LEZG 150800Z 29012KT 9999 FEW040 SCT065 07/05 Q1010
LEMD - Madrid/Barajas, Spain
Distance from station: ONO 234km
Actualización: 15/12/2017 09:00
Few Clouds
Few Clouds
 Viento del varies
Viento: varies 11 km/h
Temperatura: 8°C
Sensación frio: 6°C
Rocío: 7°C
Humedad: 93%
Barómetro: 1011 hPa
Clouds: Few Clouds
Visibility: 10 km
Cloud details: Few Clouds 274 m
2017/12/15 08:00 LEMD 150800Z VRB06KT 9999 FEW009 08/07 Q1011 WS R18L WS R18R TEMPO BKN007
 
LEGR - Granada Airport, Spain
Distance from station: OSO 62km
Actualización: 15/12/2017 09:00
Muy nuboso
Muy nuboso
 Viento del varies
Viento: varies 2 km/h
Temperatura: 9°C
Rocío: 9°C
Humedad: 100%
Barómetro: 1018 hPa
Clouds: Muy nuboso
Visibility: 8 km
Cloud details: Parcialmente nuboso 244 m
Muy nuboso 762 m
2017/12/15 08:00 LEGR 150800Z VRB01KT 8000 SCT008 BKN025 09/09 Q1018
LEMG - Malaga (civ/Mil), Spain
Distance from station: OSO 227km
Actualización: 15/12/2017 09:00
Parcialmente nuboso
Parcialmente nuboso
 Viento del ONO
Viento: ONO 9 km/h
Temperatura: 15°C
Rocío: 11°C
Humedad: 77%
Barómetro: 1017 hPa
Clouds: Parcialmente nuboso
Visibility: 10 km
Cloud details: Few Clouds 914 m
Parcialmente nuboso 1372 m
2017/12/15 08:00 LEMG 150800Z 30005KT 9999 FEW030 SCT045 15/11 Q1017 NOSIG
 
LEZL - Sevilla (civ/Mil, Spain
Distance from station: S 318km
Actualización: 15/12/2017 09:00
Cubierto
Cubierto
 Viento del SO
Viento: SO 17 km/h
Temperatura: 15°C
Rocío: 14°C
Humedad: 94%
Barómetro: 1018 hPa
Clouds: Cubierto
Visibility: 10 km
Cloud details: Cubierto 396 m
2017/12/15 08:00 LEZL 150800Z 22009KT 9999 OVC013 15/14 Q1018 NOSIG
LEVT - Vitoria, Spain
Distance from station: NO 226km
Actualización: 15/12/2017 09:00
Muy nuboso
Muy nuboso
 Viento del varies
Viento: varies 4 km/h
Temperatura: 4°C
Rocío: 3°C
Humedad: 93%
Barómetro: 1011 hPa
Clouds: Muy nuboso
Visibility: 10 km
Cloud details: Few Clouds 457 m
Muy nuboso 1067 m
2017/12/15 08:00 LEVT 150800Z VRB02KT 9999 FEW015 BKN035 04/03 Q1011
 
LEBB - Bilbao/Sondica, Spain
Distance from station: NNO 235km
Actualización: 15/12/2017 09:00
Muy nuboso
Muy nuboso
 Viento del OSO
Viento: OSO 13 km/h
Temperatura: 8°C
Sensación frio: 6°C
Rocío: 5°C
Humedad: 82%
Barómetro: 1012 hPa
Clouds: Muy nuboso
Visibility: 10 km
Cloud details: Few Clouds 762 m
Parcialmente nuboso 1372 m
Muy nuboso 1981 m
2017/12/15 08:00 LEBB 150800Z 25007KT 190V340 9999 FEW025 SCT045 BKN065 08/05 Q1012 TEMPO 4000 RA
LESO - San Sebastian/Fu, Spain
Distance from station: N 231km
Actualización: 15/12/2017 09:00
Lluvia débil, Muy nuboso
Lluvia débil, Muy nuboso
 Viento del SO
Viento: SO 19 km/h
Temperatura: 8°C
Sensación frio: 4°C
Rocío: 6°C
Humedad: 87%
Barómetro: 1011 hPa
Resumen: Lluvia débil
Clouds: Muy nuboso
Visibility: 10 km
Cloud details: Few Clouds 427 m
Muy nuboso 1036 m
Muy nuboso 1524 m
2017/12/15 08:00 LESO 150800Z 23010KT 200V280 9999 -RA FEW014 BKN034 BKN050 08/06 Q1011
 
LEVD - Valladolid(Mil/C, Spain
Distance from station: ONO 239km
Actualización: 15/12/2017 09:19
Muy nuboso
Muy nuboso
 Viento del ONO
Viento: ONO 13 km/h
Temperatura: 5°C
Sensación frio: 2°C
Rocío: 3°C
Humedad: 87%
Barómetro: 1012 hPa
Clouds: Muy nuboso
Visibility: 10 km
Cloud details: Few Clouds 457 m
Muy nuboso 518 m
2017/12/15 08:19 LEVD 150819Z 29007KT 9999 FEW015TCU BKN017 05/03 Q1012
LESA - Salamanca (civ/M, Spain
Distance from station: ONO 349km
Actualización: 15/12/2017 09:00
Muy nuboso
Muy nuboso
 Viento del ONO
Viento: ONO 11 km/h
Temperatura: 7°C
Sensación frio: 5°C
Rocío: 6°C
Humedad: 93%
Barómetro: 1012 hPa
Clouds: Muy nuboso
Visibility: 10 km
Cloud details: Muy nuboso 244 m
2017/12/15 08:00 LESA 150800Z 29006KT 9999 BKN008 07/06 Q1012
 
LEXJ - Santander/Paraya, Spain
Distance from station: NNO 247km
Actualización: 15/12/2017 09:00
Muy nuboso
Muy nuboso
 Viento del SO
Viento: SO 20 km/h, Racha: 39 km/h
Temperatura: 8°C
Sensación frio: 4°C
Rocío: 7°C
Humedad: 93%
Barómetro: 1012 hPa
Clouds: Muy nuboso
Visibility: 10 km
Cloud details: Parcialmente nuboso 610 m
Muy nuboso 1524 m
2017/12/15 08:00 LEXJ 150800Z 23011G21KT 200V260 9999 SCT020 BKN050 08/07 Q1012 RERA
LEAS - Asturias/Aviles, Spain
Distance from station: NO 214km
Actualización: 15/12/2017 09:00
Muy nuboso
Muy nuboso
 Viento del ONO
Viento: ONO 19 km/h
Temperatura: 9°C
Sensación frio: 6°C
Rocío: 4°C
Humedad: 71%
Barómetro: 1014 hPa
Clouds: Muy nuboso
Visibility: 8 km
Cloud details: Parcialmente nuboso 914 m
Muy nuboso 1524 m
2017/12/15 08:00 LEAS 150800Z 30010KT 270V340 8000 SCT030 BKN050 09/04 Q1014 NOSIG
 
LECO - La Coruna/Alvedr, Spain
Distance from station: ONO 222km
Actualización: 15/12/2017 09:00
Parcialmente nuboso
Parcialmente nuboso
 Viento del N
Viento: N 6 km/h
Temperatura: 9°C
Rocío: 6°C
Humedad: 82%
Barómetro: 1015 hPa
Clouds: Parcialmente nuboso
Visibility: 10 km
Cloud details: Few Clouds 610 m
Parcialmente nuboso 975 m
2017/12/15 08:00 LECO 150800Z 35003KT 290V080 9999 FEW020 SCT032 09/06 Q1015 NOSIG
LEVX - Vigo/Peinador, Spain
Distance from station: O 214km
Actualización: 15/12/2017 09:00
Parcialmente nuboso
Parcialmente nuboso
 Viento del NO
Viento: NO 7 km/h, Racha: 33 km/h
Temperatura: 9°C
Sensación frio: 8°C
Rocío: 7°C
Humedad: 87%
Barómetro: 1015 hPa
Clouds: Parcialmente nuboso
Visibility: 10 km
Cloud details: Parcialmente nuboso 701 m
Parcialmente nuboso 975 m
2017/12/15 08:00 LEVX 150800Z 32004G18KT 260V070 9999 SCT023 SCT032 09/07 Q1015 NOSIG